sensor_id;sensor_type;location;lat;lon;timestamp;temperature;humidity
11983;DHT22;72623;51.184;7.176;2023-09-19T00:00:06;14.30;99.90
11983;DHT22;72623;51.184;7.176;2023-09-19T00:02:38;14.30;99.90
11983;DHT22;72623;51.184;7.176;2023-09-19T00:05:04;14.20;99.90
11983;DHT22;72623;51.184;7.176;2023-09-19T00:07:31;14.20;99.90
11983;DHT22;72623;51.184;7.176;2023-09-19T00:09:58;14.20;99.90
11983;DHT22;72623;51.184;7.176;2023-09-19T00:12:25;14.30;99.90
11983;DHT22;72623;51.184;7.176;2023-09-19T00:14:52;14.40;99.90
11983;DHT22;72623;51.184;7.176;2023-09-19T00:17:19;14.50;99.90
11983;DHT22;72623;51.184;7.176;2023-09-19T00:19:46;14.40;99.90
11983;DHT22;72623;51.184;7.176;2023-09-19T00:22:17;14.40;99.90
11983;DHT22;72623;51.184;7.176;2023-09-19T00:24:44;14.30;99.90
11983;DHT22;72623;51.184;7.176;2023-09-19T00:27:11;14.30;99.90
11983;DHT22;72623;51.184;7.176;2023-09-19T00:29:37;14.20;99.90
11983;DHT22;72623;51.184;7.176;2023-09-19T00:32:06;14.10;99.90
11983;DHT22;72623;51.184;7.176;2023-09-19T00:34:34;14.10;99.90
11983;DHT22;72623;51.184;7.176;2023-09-19T00:37:01;14.00;99.90
11983;DHT22;72623;51.184;7.176;2023-09-19T00:39:29;14.00;99.90
11983;DHT22;72623;51.184;7.176;2023-09-19T00:41:57;14.00;99.90
11983;DHT22;72623;51.184;7.176;2023-09-19T00:44:30;13.90;99.90
11983;DHT22;72623;51.184;7.176;2023-09-19T00:46:56;13.90;99.90
11983;DHT22;72623;51.184;7.176;2023-09-19T00:49:24;13.90;99.90
11983;DHT22;72623;51.184;7.176;2023-09-19T00:51:51;14.00;99.90
11983;DHT22;72623;51.184;7.176;2023-09-19T00:54:18;14.00;99.90
11983;DHT22;72623;51.184;7.176;2023-09-19T00:56:46;14.10;99.90
11983;DHT22;72623;51.184;7.176;2023-09-19T00:59:14;14.00;99.90
11983;DHT22;72623;51.184;7.176;2023-09-19T01:01:41;13.90;99.90
11983;DHT22;72623;51.184;7.176;2023-09-19T01:04:08;13.90;99.90
11983;DHT22;72623;51.184;7.176;2023-09-19T01:06:35;13.90;99.90
11983;DHT22;72623;51.184;7.176;2023-09-19T01:09:02;13.90;99.90
11983;DHT22;72623;51.184;7.176;2023-09-19T01:11:38;13.90;99.90
11983;DHT22;72623;51.184;7.176;2023-09-19T01:17:14;13.90;99.90
11983;DHT22;72623;51.184;7.176;2023-09-19T01:22:21;13.80;99.90
11983;DHT22;72623;51.184;7.176;2023-09-19T01:30:31;13.80;99.90
11983;DHT22;72623;51.184;7.176;2023-09-19T01:32:59;13.80;99.90
11983;DHT22;72623;51.184;7.176;2023-09-19T01:35:26;13.90;99.90
11983;DHT22;72623;51.184;7.176;2023-09-19T01:37:52;13.90;99.90
11983;DHT22;72623;51.184;7.176;2023-09-19T01:40:20;13.90;99.90
11983;DHT22;72623;51.184;7.176;2023-09-19T01:51:09;14.00;99.90
11983;DHT22;72623;51.184;7.176;2023-09-19T01:53:45;14.00;99.90
11983;DHT22;72623;51.184;7.176;2023-09-19T01:56:22;14.00;99.90
11983;DHT22;72623;51.184;7.176;2023-09-19T01:58:53;13.90;99.90
11983;DHT22;72623;51.184;7.176;2023-09-19T02:01:22;13.90;99.90
11983;DHT22;72623;51.184;7.176;2023-09-19T02:03:50;13.90;99.90
11983;DHT22;72623;51.184;7.176;2023-09-19T02:06:18;13.90;99.90
11983;DHT22;72623;51.184;7.176;2023-09-19T02:08:46;13.90;99.90
11983;DHT22;72623;51.184;7.176;2023-09-19T02:11:14;13.90;99.90
11983;DHT22;72623;51.184;7.176;2023-09-19T02:13:41;13.90;99.90
11983;DHT22;72623;51.184;7.176;2023-09-19T02:16:09;14.00;99.90
11983;DHT22;72623;51.184;7.176;2023-09-19T02:18:36;13.90;99.90
11983;DHT22;72623;51.184;7.176;2023-09-19T02:21:03;13.90;99.90
11983;DHT22;72623;51.184;7.176;2023-09-19T02:23:32;13.90;99.90
11983;DHT22;72623;51.184;7.176;2023-09-19T02:25:59;13.90;99.90
11983;DHT22;72623;51.184;7.176;2023-09-19T02:28:27;13.90;99.90
11983;DHT22;72623;51.184;7.176;2023-09-19T02:30:56;13.80;99.90
11983;DHT22;72623;51.184;7.176;2023-09-19T02:33:22;13.90;99.90
11983;DHT22;72623;51.184;7.176;2023-09-19T02:35:49;13.90;99.90
11983;DHT22;72623;51.184;7.176;2023-09-19T02:38:16;13.80;99.90
11983;DHT22;72623;51.184;7.176;2023-09-19T02:40:46;13.90;99.90
11983;DHT22;72623;51.184;7.176;2023-09-19T02:43:13;13.90;99.90
11983;DHT22;72623;51.184;7.176;2023-09-19T02:45:39;13.90;99.90
11983;DHT22;72623;51.184;7.176;2023-09-19T02:48:07;13.80;99.90
11983;DHT22;72623;51.184;7.176;2023-09-19T02:50:34;13.70;99.90
11983;DHT22;72623;51.184;7.176;2023-09-19T02:53:00;13.70;99.90
11983;DHT22;72623;51.184;7.176;2023-09-19T02:55:27;13.70;99.90
11983;DHT22;72623;51.184;7.176;2023-09-19T02:57:57;13.60;99.90
11983;DHT22;72623;51.184;7.176;2023-09-19T03:00:24;13.60;99.90
11983;DHT22;72623;51.184;7.176;2023-09-19T03:02:54;13.60;99.90
11983;DHT22;72623;51.184;7.176;2023-09-19T03:05:22;13.70;99.90
11983;DHT22;72623;51.184;7.176;2023-09-19T03:07:50;13.70;99.90
11983;DHT22;72623;51.184;7.176;2023-09-19T03:10:20;13.80;99.90
11983;DHT22;72623;51.184;7.176;2023-09-19T03:12:48;13.90;99.90
11983;DHT22;72623;51.184;7.176;2023-09-19T03:15:15;13.90;99.90
11983;DHT22;72623;51.184;7.176;2023-09-19T03:17:46;13.80;99.90
11983;DHT22;72623;51.184;7.176;2023-09-19T03:20:13;13.80;99.90
11983;DHT22;72623;51.184;7.176;2023-09-19T03:22:43;13.70;99.90
11983;DHT22;72623;51.184;7.176;2023-09-19T03:25:10;13.70;99.90
11983;DHT22;72623;51.184;7.176;2023-09-19T03:27:38;13.60;99.90
11983;DHT22;72623;51.184;7.176;2023-09-19T03:30:05;13.50;99.90
11983;DHT22;72623;51.184;7.176;2023-09-19T03:32:37;13.40;99.90
11983;DHT22;72623;51.184;7.176;2023-09-19T03:35:09;13.40;99.90
11983;DHT22;72623;51.184;7.176;2023-09-19T03:37:42;13.30;99.90
11983;DHT22;72623;51.184;7.176;2023-09-19T03:40:10;13.30;99.90
11983;DHT22;72623;51.184;7.176;2023-09-19T03:42:41;13.30;99.90
11983;DHT22;72623;51.184;7.176;2023-09-19T03:45:09;13.20;99.90
11983;DHT22;72623;51.184;7.176;2023-09-19T03:47:38;13.20;99.90
11983;DHT22;72623;51.184;7.176;2023-09-19T03:50:06;13.10;99.90
11983;DHT22;72623;51.184;7.176;2023-09-19T03:52:33;13.10;99.90
11983;DHT22;72623;51.184;7.176;2023-09-19T03:55:00;13.10;99.90
11983;DHT22;72623;51.184;7.176;2023-09-19T03:57:27;13.20;99.90
11983;DHT22;72623;51.184;7.176;2023-09-19T03:59:54;13.10;99.90
11983;DHT22;72623;51.184;7.176;2023-09-19T04:02:21;13.10;99.90
11983;DHT22;72623;51.184;7.176;2023-09-19T04:04:49;13.10;99.90
11983;DHT22;72623;51.184;7.176;2023-09-19T04:07:16;13.10;99.90
11983;DHT22;72623;51.184;7.176;2023-09-19T04:09:44;13.10;99.90
11983;DHT22;72623;51.184;7.176;2023-09-19T04:12:11;13.10;99.90
11983;DHT22;72623;51.184;7.176;2023-09-19T04:14:38;13.20;99.90
11983;DHT22;72623;51.184;7.176;2023-09-19T04:17:04;13.20;99.90
11983;DHT22;72623;51.184;7.176;2023-09-19T04:19:31;13.20;99.90
11983;DHT22;72623;51.184;7.176;2023-09-19T04:21:59;13.20;99.90
11983;DHT22;72623;51.184;7.176;2023-09-19T04:24:25;13.20;99.90
11983;DHT22;72623;51.184;7.176;2023-09-19T04:26:52;13.20;99.90
11983;DHT22;72623;51.184;7.176;2023-09-19T04:29:19;13.20;99.90
11983;DHT22;72623;51.184;7.176;2023-09-19T04:31:45;13.30;99.90
11983;DHT22;72623;51.184;7.176;2023-09-19T04:34:12;13.30;99.90
11983;DHT22;72623;51.184;7.176;2023-09-19T04:36:43;13.20;99.90
11983;DHT22;72623;51.184;7.176;2023-09-19T04:39:10;13.10;99.90
11983;DHT22;72623;51.184;7.176;2023-09-19T04:41:38;13.20;99.90
11983;DHT22;72623;51.184;7.176;2023-09-19T04:44:07;13.20;99.90
11983;DHT22;72623;51.184;7.176;2023-09-19T04:46:34;13.20;99.90
11983;DHT22;72623;51.184;7.176;2023-09-19T04:49:01;13.10;99.90
11983;DHT22;72623;51.184;7.176;2023-09-19T04:51:28;13.10;99.90
11983;DHT22;72623;51.184;7.176;2023-09-19T04:54:00;13.20;99.90
11983;DHT22;72623;51.184;7.176;2023-09-19T04:56:26;13.20;99.90
11983;DHT22;72623;51.184;7.176;2023-09-19T04:58:54;13.10;99.90
11983;DHT22;72623;51.184;7.176;2023-09-19T05:01:20;13.20;99.90
11983;DHT22;72623;51.184;7.176;2023-09-19T05:03:48;13.10;99.90
11983;DHT22;72623;51.184;7.176;2023-09-19T05:06:20;13.10;99.90
11983;DHT22;72623;51.184;7.176;2023-09-19T05:08:48;13.10;99.90
11983;DHT22;72623;51.184;7.176;2023-09-19T05:11:19;13.10;99.90
11983;DHT22;72623;51.184;7.176;2023-09-19T05:13:49;13.10;99.90
11983;DHT22;72623;51.184;7.176;2023-09-19T05:16:16;13.20;99.90
11983;DHT22;72623;51.184;7.176;2023-09-19T05:18:43;13.10;99.90
11983;DHT22;72623;51.184;7.176;2023-09-19T05:21:10;13.10;99.90
11983;DHT22;72623;51.184;7.176;2023-09-19T05:23:37;13.10;99.90
11983;DHT22;72623;51.184;7.176;2023-09-19T05:26:04;13.10;99.90
11983;DHT22;72623;51.184;7.176;2023-09-19T05:28:30;13.10;99.90
11983;DHT22;72623;51.184;7.176;2023-09-19T05:31:02;13.20;99.90
11983;DHT22;72623;51.184;7.176;2023-09-19T05:33:29;13.20;99.90
11983;DHT22;72623;51.184;7.176;2023-09-19T05:35:56;13.20;99.90
11983;DHT22;72623;51.184;7.176;2023-09-19T05:38:22;13.20;99.90
11983;DHT22;72623;51.184;7.176;2023-09-19T05:40:51;13.30;99.90
11983;DHT22;72623;51.184;7.176;2023-09-19T05:43:18;13.30;99.90
11983;DHT22;72623;51.184;7.176;2023-09-19T05:45:44;13.40;99.90
11983;DHT22;72623;51.184;7.176;2023-09-19T05:48:13;13.40;99.90
11983;DHT22;72623;51.184;7.176;2023-09-19T05:50:42;13.60;99.90
11983;DHT22;72623;51.184;7.176;2023-09-19T05:53:09;13.60;99.90
11983;DHT22;72623;51.184;7.176;2023-09-19T05:55:40;13.70;99.90
11983;DHT22;72623;51.184;7.176;2023-09-19T05:58:07;13.70;99.90
11983;DHT22;72623;51.184;7.176;2023-09-19T06:00:35;13.80;99.90
11983;DHT22;72623;51.184;7.176;2023-09-19T06:03:02;14.00;91.00
11983;DHT22;72623;51.184;7.176;2023-09-19T06:05:28;14.00;60.20
11983;DHT22;72623;51.184;7.176;2023-09-19T06:07:57;14.10;27.20
11983;DHT22;72623;51.184;7.176;2023-09-19T06:10:26;14.10;79.00
11983;DHT22;72623;51.184;7.176;2023-09-19T06:12:54;14.20;16.50
11983;DHT22;72623;51.184;7.176;2023-09-19T06:15:23;14.40;8.80
11983;DHT22;72623;51.184;7.176;2023-09-19T06:17:55;14.40;1.00
11983;DHT22;72623;51.184;7.176;2023-09-19T06:20:23;14.40;1.00
11983;DHT22;72623;51.184;7.176;2023-09-19T06:22:51;14.40;31.20
11983;DHT22;72623;51.184;7.176;2023-09-19T06:25:18;14.30;43.80
11983;DHT22;72623;51.184;7.176;2023-09-19T06:27:50;14.40;97.70
11983;DHT22;72623;51.184;7.176;2023-09-19T06:30:18;14.40;81.50
11983;DHT22;72623;51.184;7.176;2023-09-19T06:32:44;14.40;72.20
11983;DHT22;72623;51.184;7.176;2023-09-19T06:35:15;14.50;42.70
11983;DHT22;72623;51.184;7.176;2023-09-19T06:37:43;14.50;41.50
11983;DHT22;72623;51.184;7.176;2023-09-19T06:40:10;14.60;63.10
11983;DHT22;72623;51.184;7.176;2023-09-19T06:42:43;14.70;44.80
11983;DHT22;72623;51.184;7.176;2023-09-19T06:45:11;14.70;98.90
11983;DHT22;72623;51.184;7.176;2023-09-19T06:47:39;14.60;93.50
11983;DHT22;72623;51.184;7.176;2023-09-19T06:50:06;14.70;45.00
11983;DHT22;72623;51.184;7.176;2023-09-19T06:52:39;14.90;72.40
11983;DHT22;72623;51.184;7.176;2023-09-19T06:55:06;14.90;80.80
11983;DHT22;72623;51.184;7.176;2023-09-19T06:57:35;15.00;69.10
11983;DHT22;72623;51.184;7.176;2023-09-19T07:00:02;15.10;29.70
11983;DHT22;72623;51.184;7.176;2023-09-19T07:02:34;15.30;1.00
11983;DHT22;72623;51.184;7.176;2023-09-19T07:05:01;15.40;1.00
11983;DHT22;72623;51.184;7.176;2023-09-19T07:07:27;15.60;1.00
11983;DHT22;72623;51.184;7.176;2023-09-19T07:09:54;15.80;1.00
11983;DHT22;72623;51.184;7.176;2023-09-19T07:12:22;16.10;1.00
11983;DHT22;72623;51.184;7.176;2023-09-19T07:14:48;16.10;1.00
11983;DHT22;72623;51.184;7.176;2023-09-19T07:17:15;16.10;1.00
11983;DHT22;72623;51.184;7.176;2023-09-19T07:19:43;16.40;1.00
11983;DHT22;72623;51.184;7.176;2023-09-19T07:22:09;16.60;1.00
11983;DHT22;72623;51.184;7.176;2023-09-19T07:24:36;16.90;99.90
11983;DHT22;72623;51.184;7.176;2023-09-19T07:27:04;17.10;1.00
11983;DHT22;72623;51.184;7.176;2023-09-19T07:29:31;17.20;1.00
11983;DHT22;72623;51.184;7.176;2023-09-19T07:31:57;17.70;99.90
11983;DHT22;72623;51.184;7.176;2023-09-19T07:34:24;17.50;99.90
11983;DHT22;72623;51.184;7.176;2023-09-19T07:36:51;18.30;1.00
11983;DHT22;72623;51.184;7.176;2023-09-19T07:39:17;18.40;99.90
11983;DHT22;72623;51.184;7.176;2023-09-19T07:41:44;18.40;99.90
11983;DHT22;72623;51.184;7.176;2023-09-19T07:44:11;18.50;99.90
11983;DHT22;72623;51.184;7.176;2023-09-19T07:46:38;18.30;99.90
11983;DHT22;72623;51.184;7.176;2023-09-19T07:49:05;18.70;1.00
11983;DHT22;72623;51.184;7.176;2023-09-19T07:51:32;18.90;1.00
11983;DHT22;72623;51.184;7.176;2023-09-19T07:57:21;19.90;1.00
11983;DHT22;72623;51.184;7.176;2023-09-19T07:59:47;19.80;1.00
11983;DHT22;72623;51.184;7.176;2023-09-19T08:02:14;20.10;99.90
11983;DHT22;72623;51.184;7.176;2023-09-19T08:04:45;20.40;1.00
11983;DHT22;72623;51.184;7.176;2023-09-19T08:07:12;19.60;1.00
11983;DHT22;72623;51.184;7.176;2023-09-19T08:09:39;19.50;1.00
11983;DHT22;72623;51.184;7.176;2023-09-19T08:12:07;19.30;99.90
11983;DHT22;72623;51.184;7.176;2023-09-19T08:14:36;18.90;1.00
11983;DHT22;72623;51.184;7.176;2023-09-19T08:17:03;18.20;1.00
11983;DHT22;72623;51.184;7.176;2023-09-19T08:19:31;17.90;1.00
11983;DHT22;72623;51.184;7.176;2023-09-19T08:21:58;18.00;1.00
11983;DHT22;72623;51.184;7.176;2023-09-19T08:24:28;18.60;1.00
11983;DHT22;72623;51.184;7.176;2023-09-19T08:26:56;19.60;99.90
11983;DHT22;72623;51.184;7.176;2023-09-19T08:29:23;19.60;1.00
11983;DHT22;72623;51.184;7.176;2023-09-19T08:31:54;19.60;1.00
11983;DHT22;72623;51.184;7.176;2023-09-19T08:34:22;19.20;26.00
11983;DHT22;72623;51.184;7.176;2023-09-19T08:36:50;19.20;1.00
11983;DHT22;72623;51.184;7.176;2023-09-19T08:39:18;19.30;1.00
11983;DHT22;72623;51.184;7.176;2023-09-19T08:41:45;20.00;99.90
11983;DHT22;72623;51.184;7.176;2023-09-19T08:44:12;20.50;1.00
11983;DHT22;72623;51.184;7.176;2023-09-19T08:46:41;19.70;1.00
11983;DHT22;72623;51.184;7.176;2023-09-19T08:52:09;19.70;1.00
11983;DHT22;72623;51.184;7.176;2023-09-19T08:54:38;19.40;99.90
11983;DHT22;72623;51.184;7.176;2023-09-19T08:57:07;19.60;99.90
11983;DHT22;72623;51.184;7.176;2023-09-19T08:59:38;19.60;1.00
11983;DHT22;72623;51.184;7.176;2023-09-19T09:02:12;19.90;1.00
11983;DHT22;72623;51.184;7.176;2023-09-19T09:04:41;20.00;1.00
11983;DHT22;72623;51.184;7.176;2023-09-19T09:07:11;20.10;1.00
11983;DHT22;72623;51.184;7.176;2023-09-19T09:09:39;20.40;1.00
11983;DHT22;72623;51.184;7.176;2023-09-19T09:12:17;21.00;1.00
11983;DHT22;72623;51.184;7.176;2023-09-19T09:14:45;20.60;99.90
11983;DHT22;72623;51.184;7.176;2023-09-19T09:17:13;21.50;1.00
11983;DHT22;72623;51.184;7.176;2023-09-19T09:19:39;21.80;99.90
11983;DHT22;72623;51.184;7.176;2023-09-19T09:22:10;21.20;1.00
11983;DHT22;72623;51.184;7.176;2023-09-19T09:24:54;22.10;99.90
11983;DHT22;72623;51.184;7.176;2023-09-19T09:27:23;22.80;1.00
11983;DHT22;72623;51.184;7.176;2023-09-19T09:29:52;24.10;99.90
11983;DHT22;72623;51.184;7.176;2023-09-19T09:32:25;24.80;1.00
11983;DHT22;72623;51.184;7.176;2023-09-19T09:34:56;26.70;1.00
11983;DHT22;72623;51.184;7.176;2023-09-19T09:37:24;27.80;1.00
11983;DHT22;72623;51.184;7.176;2023-09-19T09:39:52;28.00;1.00
11983;DHT22;72623;51.184;7.176;2023-09-19T09:42:32;28.30;1.00
11983;DHT22;72623;51.184;7.176;2023-09-19T09:45:23;26.90;1.00
11983;DHT22;72623;51.184;7.176;2023-09-19T09:48:03;27.70;1.00
11983;DHT22;72623;51.184;7.176;2023-09-19T09:58:25;28.90;1.00
11983;DHT22;72623;51.184;7.176;2023-09-19T10:00:55;27.30;1.00
11983;DHT22;72623;51.184;7.176;2023-09-19T10:03:34;26.00;1.00
11983;DHT22;72623;51.184;7.176;2023-09-19T10:06:16;26.30;1.00
11983;DHT22;72623;51.184;7.176;2023-09-19T10:09:06;26.30;1.00
11983;DHT22;72623;51.184;7.176;2023-09-19T10:11:47;28.20;1.00
11983;DHT22;72623;51.184;7.176;2023-09-19T10:14:20;28.80;1.00
11983;DHT22;72623;51.184;7.176;2023-09-19T10:16:49;28.80;1.00
11983;DHT22;72623;51.184;7.176;2023-09-19T10:19:30;26.30;1.00
11983;DHT22;72623;51.184;7.176;2023-09-19T10:22:01;24.80;1.00
11983;DHT22;72623;51.184;7.176;2023-09-19T10:24:30;23.00;1.00
11983;DHT22;72623;51.184;7.176;2023-09-19T10:26:57;22.60;1.00
11983;DHT22;72623;51.184;7.176;2023-09-19T10:29:24;21.60;99.90
11983;DHT22;72623;51.184;7.176;2023-09-19T10:31:54;22.40;1.00
11983;DHT22;72623;51.184;7.176;2023-09-19T10:34:24;22.00;99.90
11983;DHT22;72623;51.184;7.176;2023-09-19T10:36:52;21.30;99.90
11983;DHT22;72623;51.184;7.176;2023-09-19T10:39:19;21.40;99.90
11983;DHT22;72623;51.184;7.176;2023-09-19T10:41:50;21.40;22.40
11983;DHT22;72623;51.184;7.176;2023-09-19T10:44:23;22.00;1.00
11983;DHT22;72623;51.184;7.176;2023-09-19T10:46:52;23.50;1.00
11983;DHT22;72623;51.184;7.176;2023-09-19T10:49:20;24.70;1.00
11983;DHT22;72623;51.184;7.176;2023-09-19T10:51:49;26.70;1.00
11983;DHT22;72623;51.184;7.176;2023-09-19T10:54:21;26.20;1.00
11983;DHT22;72623;51.184;7.176;2023-09-19T10:56:52;25.90;1.00
11983;DHT22;72623;51.184;7.176;2023-09-19T10:59:21;26.10;1.00
11983;DHT22;72623;51.184;7.176;2023-09-19T11:01:53;26.60;1.00
11983;DHT22;72623;51.184;7.176;2023-09-19T11:04:32;26.00;1.00
11983;DHT22;72623;51.184;7.176;2023-09-19T11:07:09;26.20;1.00
11983;DHT22;72623;51.184;7.176;2023-09-19T11:09:50;25.90;1.00
11983;DHT22;72623;51.184;7.176;2023-09-19T11:15:01;25.20;1.00
11983;DHT22;72623;51.184;7.176;2023-09-19T11:25:47;24.60;1.00
11983;DHT22;72623;51.184;7.176;2023-09-19T11:30:51;25.40;1.00
11983;DHT22;72623;51.184;7.176;2023-09-19T11:33:24;25.60;1.00
11983;DHT22;72623;51.184;7.176;2023-09-19T11:36:06;25.50;1.00
11983;DHT22;72623;51.184;7.176;2023-09-19T11:46:53;27.70;1.00
11983;DHT22;72623;51.184;7.176;2023-09-19T11:49:33;27.90;1.00
11983;DHT22;72623;51.184;7.176;2023-09-19T11:52:03;27.20;1.00
11983;DHT22;72623;51.184;7.176;2023-09-19T11:54:32;25.90;1.00
11983;DHT22;72623;51.184;7.176;2023-09-19T11:57:00;26.20;1.00
11983;DHT22;72623;51.184;7.176;2023-09-19T11:59:31;26.20;1.00
11983;DHT22;72623;51.184;7.176;2023-09-19T12:02:07;25.70;1.00
11983;DHT22;72623;51.184;7.176;2023-09-19T12:04:40;25.90;1.00
11983;DHT22;72623;51.184;7.176;2023-09-19T12:07:13;25.80;1.00
11983;DHT22;72623;51.184;7.176;2023-09-19T12:10:02;26.10;1.00
11983;DHT22;72623;51.184;7.176;2023-09-19T12:12:30;24.90;1.00
11983;DHT22;72623;51.184;7.176;2023-09-19T12:14:58;25.40;1.00
11983;DHT22;72623;51.184;7.176;2023-09-19T12:17:41;25.50;1.00
11983;DHT22;72623;51.184;7.176;2023-09-19T12:20:09;25.60;1.00
11983;DHT22;72623;51.184;7.176;2023-09-19T12:22:44;25.40;1.00
11983;DHT22;72623;51.184;7.176;2023-09-19T12:25:15;25.70;1.00
11983;DHT22;72623;51.184;7.176;2023-09-19T12:27:46;24.70;1.00
11983;DHT22;72623;51.184;7.176;2023-09-19T12:30:15;24.80;1.00
11983;DHT22;72623;51.184;7.176;2023-09-19T12:32:43;24.30;1.00
11983;DHT22;72623;51.184;7.176;2023-09-19T12:35:10;24.10;1.00
11983;DHT22;72623;51.184;7.176;2023-09-19T12:37:54;23.50;1.00
11983;DHT22;72623;51.184;7.176;2023-09-19T12:40:22;24.10;1.00
11983;DHT22;72623;51.184;7.176;2023-09-19T12:42:53;24.10;1.00
11983;DHT22;72623;51.184;7.176;2023-09-19T12:45:21;24.80;1.00
11983;DHT22;72623;51.184;7.176;2023-09-19T12:51:07;24.90;1.00
11983;DHT22;72623;51.184;7.176;2023-09-19T12:53:40;24.70;1.00
11983;DHT22;72623;51.184;7.176;2023-09-19T12:56:08;24.50;1.00
11983;DHT22;72623;51.184;7.176;2023-09-19T12:58:56;24.80;1.00
11983;DHT22;72623;51.184;7.176;2023-09-19T13:01:25;24.70;1.00
11983;DHT22;72623;51.184;7.176;2023-09-19T13:06:44;24.60;1.00
11983;DHT22;72623;51.184;7.176;2023-09-19T13:09:11;24.60;1.00
11983;DHT22;72623;51.184;7.176;2023-09-19T13:11:39;24.10;1.00
11983;DHT22;72623;51.184;7.176;2023-09-19T13:17:01;23.40;1.00
11983;DHT22;72623;51.184;7.176;2023-09-19T13:19:39;24.10;1.00
11983;DHT22;72623;51.184;7.176;2023-09-19T13:25:10;23.90;1.00
11983;DHT22;72623;51.184;7.176;2023-09-19T13:27:41;23.20;1.00
11983;DHT22;72623;51.184;7.176;2023-09-19T13:30:08;22.60;1.00
11983;DHT22;72623;51.184;7.176;2023-09-19T13:32:35;22.20;1.00
11983;DHT22;72623;51.184;7.176;2023-09-19T13:35:01;21.60;1.00
11983;DHT22;72623;51.184;7.176;2023-09-19T13:37:28;21.50;1.00
11983;DHT22;72623;51.184;7.176;2023-09-19T13:39:55;21.30;1.00
11983;DHT22;72623;51.184;7.176;2023-09-19T13:42:24;21.20;1.00
11983;DHT22;72623;51.184;7.176;2023-09-19T13:44:55;21.10;1.00
11983;DHT22;72623;51.184;7.176;2023-09-19T13:47:22;21.20;1.00
11983;DHT22;72623;51.184;7.176;2023-09-19T13:49:50;21.30;1.00
11983;DHT22;72623;51.184;7.176;2023-09-19T13:52:20;21.30;1.00
11983;DHT22;72623;51.184;7.176;2023-09-19T13:54:52;20.90;1.00
11983;DHT22;72623;51.184;7.176;2023-09-19T13:57:18;20.80;1.00
11983;DHT22;72623;51.184;7.176;2023-09-19T13:59:45;21.00;1.00
11983;DHT22;72623;51.184;7.176;2023-09-19T14:02:12;21.20;1.00
11983;DHT22;72623;51.184;7.176;2023-09-19T14:04:39;21.30;1.00
11983;DHT22;72623;51.184;7.176;2023-09-19T14:07:06;21.30;1.00
11983;DHT22;72623;51.184;7.176;2023-09-19T14:09:34;21.10;1.00
11983;DHT22;72623;51.184;7.176;2023-09-19T14:12:00;21.20;1.00
11983;DHT22;72623;51.184;7.176;2023-09-19T14:14:27;21.10;1.00
11983;DHT22;72623;51.184;7.176;2023-09-19T14:16:53;21.00;1.00
11983;DHT22;72623;51.184;7.176;2023-09-19T14:19:21;20.90;1.00
11983;DHT22;72623;51.184;7.176;2023-09-19T14:21:47;21.20;1.00
11983;DHT22;72623;51.184;7.176;2023-09-19T14:24:18;21.10;1.00
11983;DHT22;72623;51.184;7.176;2023-09-19T14:26:45;21.10;1.00
11983;DHT22;72623;51.184;7.176;2023-09-19T14:29:13;21.30;1.00
11983;DHT22;72623;51.184;7.176;2023-09-19T14:31:41;20.90;1.00
11983;DHT22;72623;51.184;7.176;2023-09-19T14:34:08;20.70;1.00
11983;DHT22;72623;51.184;7.176;2023-09-19T14:36:36;20.40;1.00
11983;DHT22;72623;51.184;7.176;2023-09-19T14:39:04;20.30;1.00
11983;DHT22;72623;51.184;7.176;2023-09-19T14:41:31;20.40;1.00
11983;DHT22;72623;51.184;7.176;2023-09-19T14:43:57;20.10;99.90
11983;DHT22;72623;51.184;7.176;2023-09-19T14:46:24;20.20;99.90
11983;DHT22;72623;51.184;7.176;2023-09-19T14:48:51;20.30;99.90
11983;DHT22;72623;51.184;7.176;2023-09-19T14:51:19;20.10;99.90
11983;DHT22;72623;51.184;7.176;2023-09-19T14:53:46;20.10;99.90
11983;DHT22;72623;51.184;7.176;2023-09-19T14:56:13;20.00;99.90
11983;DHT22;72623;51.184;7.176;2023-09-19T14:58:43;19.90;99.90
11983;DHT22;72623;51.184;7.176;2023-09-19T15:01:12;20.00;99.90
11983;DHT22;72623;51.184;7.176;2023-09-19T15:03:40;20.00;99.90
11983;DHT22;72623;51.184;7.176;2023-09-19T15:06:09;19.80;99.90
11983;DHT22;72623;51.184;7.176;2023-09-19T15:08:40;19.90;1.00
11983;DHT22;72623;51.184;7.176;2023-09-19T15:11:11;19.70;1.00
11983;DHT22;72623;51.184;7.176;2023-09-19T15:13:38;19.50;1.00
11983;DHT22;72623;51.184;7.176;2023-09-19T15:16:06;19.50;1.00
11983;DHT22;72623;51.184;7.176;2023-09-19T15:18:34;19.30;1.00
11983;DHT22;72623;51.184;7.176;2023-09-19T15:21:03;19.40;91.10
11983;DHT22;72623;51.184;7.176;2023-09-19T15:23:30;19.40;1.00
11983;DHT22;72623;51.184;7.176;2023-09-19T15:25:58;19.50;27.00
11983;DHT22;72623;51.184;7.176;2023-09-19T15:28:24;19.50;1.00
11983;DHT22;72623;51.184;7.176;2023-09-19T15:30:57;19.40;1.00
11983;DHT22;72623;51.184;7.176;2023-09-19T15:33:24;19.20;1.00
11983;DHT22;72623;51.184;7.176;2023-09-19T15:35:52;19.20;11.60
11983;DHT22;72623;51.184;7.176;2023-09-19T15:38:19;19.10;1.00
11983;DHT22;72623;51.184;7.176;2023-09-19T15:40:47;18.90;28.20
11983;DHT22;72623;51.184;7.176;2023-09-19T15:43:13;18.90;44.70
11983;DHT22;72623;51.184;7.176;2023-09-19T15:45:42;18.80;99.90
11983;DHT22;72623;51.184;7.176;2023-09-19T15:48:09;18.80;99.90
11983;DHT22;72623;51.184;7.176;2023-09-19T15:50:35;19.00;91.20
11983;DHT22;72623;51.184;7.176;2023-09-19T15:53:02;19.00;97.00
11983;DHT22;72623;51.184;7.176;2023-09-19T15:55:29;18.90;99.90
11983;DHT22;72623;51.184;7.176;2023-09-19T15:57:56;18.90;99.90
11983;DHT22;72623;51.184;7.176;2023-09-19T16:00:24;19.00;99.90
11983;DHT22;72623;51.184;7.176;2023-09-19T16:02:50;19.00;99.90
11983;DHT22;72623;51.184;7.176;2023-09-19T16:05:20;18.90;99.90
11983;DHT22;72623;51.184;7.176;2023-09-19T16:07:46;18.90;99.90
11983;DHT22;72623;51.184;7.176;2023-09-19T16:10:13;18.80;99.90
11983;DHT22;72623;51.184;7.176;2023-09-19T16:12:40;18.90;99.90
11983;DHT22;72623;51.184;7.176;2023-09-19T16:15:07;19.00;99.90
11983;DHT22;72623;51.184;7.176;2023-09-19T16:17:37;18.90;99.90
11983;DHT22;72623;51.184;7.176;2023-09-19T16:20:04;19.00;99.90
11983;DHT22;72623;51.184;7.176;2023-09-19T16:22:33;18.80;99.90
11983;DHT22;72623;51.184;7.176;2023-09-19T16:24:59;18.80;99.90
11983;DHT22;72623;51.184;7.176;2023-09-19T16:27:26;18.90;76.10
11983;DHT22;72623;51.184;7.176;2023-09-19T16:29:53;18.80;99.90
11983;DHT22;72623;51.184;7.176;2023-09-19T16:32:20;18.80;99.90
11983;DHT22;72623;51.184;7.176;2023-09-19T16:34:47;18.80;79.80
11983;DHT22;72623;51.184;7.176;2023-09-19T16:37:14;18.70;96.90
11983;DHT22;72623;51.184;7.176;2023-09-19T16:39:40;18.50;99.90
11983;DHT22;72623;51.184;7.176;2023-09-19T16:42:08;18.50;99.90
11983;DHT22;72623;51.184;7.176;2023-09-19T16:44:37;18.40;99.50
11983;DHT22;72623;51.184;7.176;2023-09-19T16:47:04;18.40;99.90
11983;DHT22;72623;51.184;7.176;2023-09-19T16:49:30;18.40;99.90
11983;DHT22;72623;51.184;7.176;2023-09-19T16:51:57;18.40;99.90
11983;DHT22;72623;51.184;7.176;2023-09-19T16:54:23;18.20;99.90